sensor_id;sensor_type;location;lat;lon;timestamp;pressure;altitude;pressure_sealevel;temperature;humidity
9784;BME280;4931;44.874;-1.092;2023-05-24T00:01:47;101520.78;;;15.34;100.00
9784;BME280;4931;44.874;-1.092;2023-05-24T00:04:12;101514.63;;;15.42;100.00
9784;BME280;4931;44.874;-1.092;2023-05-24T00:06:39;101519.91;;;15.38;100.00
9784;BME280;4931;44.874;-1.092;2023-05-24T00:09:06;101516.56;;;15.41;100.00
9784;BME280;4931;44.874;-1.092;2023-05-24T00:11:31;101516.00;;;15.44;100.00
9784;BME280;4931;44.874;-1.092;2023-05-24T00:13:57;101511.28;;;15.45;100.00
9784;BME280;4931;44.874;-1.092;2023-05-24T00:16:23;101507.09;;;15.48;100.00
9784;BME280;4931;44.874;-1.092;2023-05-24T00:18:48;101508.16;;;15.52;100.00
9784;BME280;4931;44.874;-1.092;2023-05-24T00:21:14;101505.78;;;15.64;100.00
9784;BME280;4931;44.874;-1.092;2023-05-24T00:23:40;101498.69;;;15.58;100.00
9784;BME280;4931;44.874;-1.092;2023-05-24T00:26:10;101515.25;;;15.58;100.00
9784;BME280;4931;44.874;-1.092;2023-05-24T00:28:35;101505.03;;;15.58;100.00
9784;BME280;4931;44.874;-1.092;2023-05-24T00:31:01;101505.44;;;15.47;100.00
9784;BME280;4931;44.874;-1.092;2023-05-24T00:33:27;101509.63;;;15.44;100.00
9784;BME280;4931;44.874;-1.092;2023-05-24T00:35:54;101503.78;;;15.46;100.00
9784;BME280;4931;44.874;-1.092;2023-05-24T00:38:23;101498.78;;;15.48;100.00
9784;BME280;4931;44.874;-1.092;2023-05-24T00:40:49;101493.28;;;15.48;100.00
9784;BME280;4931;44.874;-1.092;2023-05-24T00:43:15;101497.38;;;15.50;100.00
9784;BME280;4931;44.874;-1.092;2023-05-24T00:45:41;101494.69;;;15.45;100.00
9784;BME280;4931;44.874;-1.092;2023-05-24T00:48:07;101493.50;;;15.51;100.00
9784;BME280;4931;44.874;-1.092;2023-05-24T00:50:33;101498.19;;;15.51;100.00
9784;BME280;4931;44.874;-1.092;2023-05-24T00:53:01;101481.16;;;15.43;100.00
9784;BME280;4931;44.874;-1.092;2023-05-24T00:55:27;101486.22;;;15.36;100.00
9784;BME280;4931;44.874;-1.092;2023-05-24T00:57:55;101482.44;;;15.27;100.00
9784;BME280;4931;44.874;-1.092;2023-05-24T01:00:21;101484.09;;;15.28;100.00
9784;BME280;4931;44.874;-1.092;2023-05-24T01:02:47;101480.88;;;15.21;100.00
9784;BME280;4931;44.874;-1.092;2023-05-24T01:05:13;101473.16;;;15.18;100.00
9784;BME280;4931;44.874;-1.092;2023-05-24T01:07:58;101477.56;;;15.19;100.00
9784;BME280;4931;44.874;-1.092;2023-05-24T01:10:39;101474.81;;;15.19;100.00
9784;BME280;4931;44.874;-1.092;2023-05-24T01:18:30;101459.50;;;15.02;100.00
9784;BME280;4931;44.874;-1.092;2023-05-24T01:24:03;101455.63;;;15.03;100.00
9784;BME280;4931;44.874;-1.092;2023-05-24T01:26:41;101455.63;;;15.03;100.00
9784;BME280;4931;44.874;-1.092;2023-05-24T01:29:10;101452.06;;;15.03;100.00
9784;BME280;4931;44.874;-1.092;2023-05-24T01:31:38;101447.88;;;15.05;100.00
9784;BME280;4931;44.874;-1.092;2023-05-24T01:34:03;101451.31;;;14.97;100.00
9784;BME280;4931;44.874;-1.092;2023-05-24T01:36:29;101451.06;;;14.93;100.00
9784;BME280;4931;44.874;-1.092;2023-05-24T01:38:54;101454.63;;;14.94;100.00
9784;BME280;4931;44.874;-1.092;2023-05-24T01:46:56;101457.50;;;14.84;100.00
9784;BME280;4931;44.874;-1.092;2023-05-24T01:49:26;101460.31;;;14.78;100.00
9784;BME280;4931;44.874;-1.092;2023-05-24T01:51:59;101464.19;;;14.77;100.00
9784;BME280;4931;44.874;-1.092;2023-05-24T01:54:30;101453.72;;;14.74;100.00
9784;BME280;4931;44.874;-1.092;2023-05-24T01:56:57;101442.84;;;14.54;100.00
9784;BME280;4931;44.874;-1.092;2023-05-24T01:59:25;101450.69;;;14.41;100.00
9784;BME280;4931;44.874;-1.092;2023-05-24T02:01:53;101451.81;;;14.35;100.00
9784;BME280;4931;44.874;-1.092;2023-05-24T02:04:19;101449.16;;;14.25;100.00
9784;BME280;4931;44.874;-1.092;2023-05-24T02:06:44;101441.53;;;14.11;100.00
9784;BME280;4931;44.874;-1.092;2023-05-24T02:09:10;101436.59;;;14.08;100.00
9784;BME280;4931;44.874;-1.092;2023-05-24T02:11:35;101437.69;;;14.07;100.00
9784;BME280;4931;44.874;-1.092;2023-05-24T02:14:01;101436.34;;;14.39;100.00
9784;BME280;4931;44.874;-1.092;2023-05-24T02:16:26;101435.38;;;14.25;100.00
9784;BME280;4931;44.874;-1.092;2023-05-24T02:18:55;101431.47;;;14.26;100.00
9784;BME280;4931;44.874;-1.092;2023-05-24T02:21:21;101431.84;;;14.14;100.00
9784;BME280;4931;44.874;-1.092;2023-05-24T02:23:47;101429.94;;;14.15;100.00
9784;BME280;4931;44.874;-1.092;2023-05-24T02:26:13;101443.19;;;14.13;100.00
9784;BME280;4931;44.874;-1.092;2023-05-24T02:28:39;101449.75;;;14.17;100.00
9784;BME280;4931;44.874;-1.092;2023-05-24T02:31:05;101446.19;;;14.16;100.00
9784;BME280;4931;44.874;-1.092;2023-05-24T02:33:31;101447.47;;;14.29;100.00
9784;BME280;4931;44.874;-1.092;2023-05-24T02:35:57;101436.56;;;14.14;100.00
9784;BME280;4931;44.874;-1.092;2023-05-24T02:38:23;101436.63;;;14.03;100.00
9784;BME280;4931;44.874;-1.092;2023-05-24T02:40:49;101436.63;;;14.03;100.00
9784;BME280;4931;44.874;-1.092;2023-05-24T02:43:14;101430.25;;;14.08;100.00
9784;BME280;4931;44.874;-1.092;2023-05-24T02:45:40;101442.69;;;14.05;100.00
9784;BME280;4931;44.874;-1.092;2023-05-24T02:48:05;101438.81;;;14.06;100.00
9784;BME280;4931;44.874;-1.092;2023-05-24T02:50:31;101439.44;;;13.93;100.00
9784;BME280;4931;44.874;-1.092;2023-05-24T02:52:56;101443.31;;;13.92;100.00
9784;BME280;4931;44.874;-1.092;2023-05-24T02:55:22;101443.25;;;14.02;100.00
9784;BME280;4931;44.874;-1.092;2023-05-24T02:57:47;101442.72;;;14.00;100.00
9784;BME280;4931;44.874;-1.092;2023-05-24T03:00:13;101441.69;;;13.91;100.00
9784;BME280;4931;44.874;-1.092;2023-05-24T03:02:39;101443.84;;;13.94;100.00
9784;BME280;4931;44.874;-1.092;2023-05-24T03:05:06;101442.75;;;13.95;100.00
9784;BME280;4931;44.874;-1.092;2023-05-24T03:07:36;101437.25;;;13.95;100.00
9784;BME280;4931;44.874;-1.092;2023-05-24T03:10:02;101441.69;;;13.91;100.00
9784;BME280;4931;44.874;-1.092;2023-05-24T03:12:27;101443.31;;;13.92;100.00
9784;BME280;4931;44.874;-1.092;2023-05-24T03:14:53;101443.84;;;13.99;100.00
9784;BME280;4931;44.874;-1.092;2023-05-24T03:17:18;101448.28;;;13.95;100.00
9784;BME280;4931;44.874;-1.092;2023-05-24T03:19:44;101449.94;;;13.96;100.00
9784;BME280;4931;44.874;-1.092;2023-05-24T03:22:09;101445.47;;;14.00;100.00
9784;BME280;4931;44.874;-1.092;2023-05-24T03:24:35;101446.03;;;13.97;100.00
9784;BME280;4931;44.874;-1.092;2023-05-24T03:27:03;101445.56;;;13.90;100.00
9784;BME280;4931;44.874;-1.092;2023-05-24T03:29:29;101449.41;;;13.89;100.00
9784;BME280;4931;44.874;-1.092;2023-05-24T03:31:54;101445.50;;;13.95;100.00
9784;BME280;4931;44.874;-1.092;2023-05-24T03:34:20;101448.75;;;14.02;100.00
9784;BME280;4931;44.874;-1.092;2023-05-24T03:36:45;101447.94;;;14.02;100.00
9784;BME280;4931;44.874;-1.092;2023-05-24T03:39:11;101443.84;;;13.99;100.00
9784;BME280;4931;44.874;-1.092;2023-05-24T03:41:36;101440.78;;;14.01;100.00
9784;BME280;4931;44.874;-1.092;2023-05-24T03:44:02;101444.31;;;14.06;100.00
9784;BME280;4931;44.874;-1.092;2023-05-24T03:46:27;101436.91;;;14.02;100.00
9784;BME280;4931;44.874;-1.092;2023-05-24T03:48:53;101442.06;;;14.14;100.00
9784;BME280;4931;44.874;-1.092;2023-05-24T03:51:18;101442.28;;;14.22;100.00
9784;BME280;4931;44.874;-1.092;2023-05-24T03:53:44;101434.06;;;14.17;100.00
9784;BME280;4931;44.874;-1.092;2023-05-24T03:56:09;101430.97;;;14.24;100.00
9784;BME280;4931;44.874;-1.092;2023-05-24T03:58:35;101436.19;;;14.25;100.00
9784;BME280;4931;44.874;-1.092;2023-05-24T04:01:01;101431.47;;;14.26;100.00
9784;BME280;4931;44.874;-1.092;2023-05-24T04:03:27;101438.13;;;14.25;100.00
9784;BME280;4931;44.874;-1.092;2023-05-24T04:05:53;101419.88;;;14.29;100.00
9784;BME280;4931;44.874;-1.092;2023-05-24T04:08:19;101427.06;;;14.30;100.00
9784;BME280;4931;44.874;-1.092;2023-05-24T04:10:44;101426.47;;;14.33;100.00
9784;BME280;4931;44.874;-1.092;2023-05-24T04:13:10;101427.06;;;14.30;100.00
9784;BME280;4931;44.874;-1.092;2023-05-24T04:15:35;101431.41;;;14.36;100.00
9784;BME280;4931;44.874;-1.092;2023-05-24T04:18:02;101446.38;;;14.30;100.00
9784;BME280;4931;44.874;-1.092;2023-05-24T04:20:27;101445.91;;;14.18;100.00
9784;BME280;4931;44.874;-1.092;2023-05-24T04:22:53;101452.50;;;14.22;100.00
9784;BME280;4931;44.874;-1.092;2023-05-24T04:25:20;101448.38;;;14.19;100.00
9784;BME280;4931;44.874;-1.092;2023-05-24T04:27:46;101444.53;;;14.15;100.00
9784;BME280;4931;44.874;-1.092;2023-05-24T04:30:13;101451.94;;;14.25;100.00
9784;BME280;4931;44.874;-1.092;2023-05-24T04:32:41;101449.44;;;14.23;100.00
9784;BME280;4931;44.874;-1.092;2023-05-24T04:35:09;101459.66;;;14.23;100.00
9784;BME280;4931;44.874;-1.092;2023-05-24T04:37:34;101459.66;;;14.23;100.00
9784;BME280;4931;44.874;-1.092;2023-05-24T04:40:00;101458.88;;;14.17;100.00
9784;BME280;4931;44.874;-1.092;2023-05-24T04:42:25;101462.78;;;14.11;100.00
9784;BME280;4931;44.874;-1.092;2023-05-24T04:44:55;101458.06;;;14.11;100.00
9784;BME280;4931;44.874;-1.092;2023-05-24T04:47:21;101464.69;;;14.16;100.00
9784;BME280;4931;44.874;-1.092;2023-05-24T04:49:46;101461.13;;;14.10;100.00
9784;BME280;4931;44.874;-1.092;2023-05-24T04:52:11;101462.25;;;14.04;100.00
9784;BME280;4931;44.874;-1.092;2023-05-24T04:54:37;101463.69;;;14.01;100.00
9784;BME280;4931;44.874;-1.092;2023-05-24T04:57:02;101471.66;;;14.03;100.00
9784;BME280;4931;44.874;-1.092;2023-05-24T04:59:28;101466.97;;;14.03;100.00
9784;BME280;4931;44.874;-1.092;2023-05-24T05:01:53;101469.69;;;14.08;100.00
9784;BME280;4931;44.874;-1.092;2023-05-24T05:04:19;101474.13;;;14.04;100.00
9784;BME280;4931;44.874;-1.092;2023-05-24T05:06:44;101463.38;;;14.08;100.00
9784;BME280;4931;44.874;-1.092;2023-05-24T05:09:10;101469.69;;;14.08;100.00
9784;BME280;4931;44.874;-1.092;2023-05-24T05:11:39;101470.22;;;14.16;100.00
9784;BME280;4931;44.874;-1.092;2023-05-24T05:14:05;101474.66;;;14.06;100.00
9784;BME280;4931;44.874;-1.092;2023-05-24T05:16:33;101468.38;;;14.01;100.00
9784;BME280;4931;44.874;-1.092;2023-05-24T05:18:58;101474.47;;;13.98;100.00
9784;BME280;4931;44.874;-1.092;2023-05-24T05:21:24;101472.75;;;14.07;100.00
9784;BME280;4931;44.874;-1.092;2023-05-24T05:23:49;101485.09;;;14.15;100.00
9784;BME280;4931;44.874;-1.092;2023-05-24T05:26:15;101481.38;;;13.95;100.00
9784;BME280;4931;44.874;-1.092;2023-05-24T05:28:40;101481.91;;;13.92;100.00
9784;BME280;4931;44.874;-1.092;2023-05-24T05:31:06;101484.66;;;13.97;100.00
9784;BME280;4931;44.874;-1.092;2023-05-24T05:33:31;101495.06;;;14.10;100.00
9784;BME280;4931;44.874;-1.092;2023-05-24T05:35:57;101490.63;;;14.15;100.00
9784;BME280;4931;44.874;-1.092;2023-05-24T05:38:22;101508.75;;;14.26;100.00
9784;BME280;4931;44.874;-1.092;2023-05-24T05:40:48;101502.91;;;14.33;100.00
9784;BME280;4931;44.874;-1.092;2023-05-24T05:43:13;101509.75;;;14.40;100.00
9784;BME280;4931;44.874;-1.092;2023-05-24T05:45:39;101519.97;;;14.40;100.00
9784;BME280;4931;44.874;-1.092;2023-05-24T05:48:05;101520.31;;;14.33;100.00
9784;BME280;4931;44.874;-1.092;2023-05-24T05:50:30;101520.31;;;14.33;100.00
9784;BME280;4931;44.874;-1.092;2023-05-24T05:52:56;101531.34;;;14.33;100.00
9784;BME280;4931;44.874;-1.092;2023-05-24T05:55:23;101524.94;;;14.38;100.00
9784;BME280;4931;44.874;-1.092;2023-05-24T05:57:48;101521.19;;;14.63;100.00
9784;BME280;4931;44.874;-1.092;2023-05-24T06:00:14;101533.25;;;14.77;100.00
9784;BME280;4931;44.874;-1.092;2023-05-24T06:02:39;101526.41;;;14.99;100.00
9784;BME280;4931;44.874;-1.092;2023-05-24T06:05:05;101522.53;;;15.00;100.00
9784;BME280;4931;44.874;-1.092;2023-05-24T06:07:31;101529.13;;;15.04;100.00
9784;BME280;4931;44.874;-1.092;2023-05-24T06:09:57;101538.66;;;15.17;100.00
9784;BME280;4931;44.874;-1.092;2023-05-24T06:12:22;101533.25;;;15.31;100.00
9784;BME280;4931;44.874;-1.092;2023-05-24T06:14:47;101540.38;;;15.37;100.00
9784;BME280;4931;44.874;-1.092;2023-05-24T06:17:15;101536.56;;;15.33;100.00
9784;BME280;4931;44.874;-1.092;2023-05-24T06:19:41;101538.31;;;15.48;100.00
9784;BME280;4931;44.874;-1.092;2023-05-24T06:22:07;101546.63;;;15.72;100.00
9784;BME280;4931;44.874;-1.092;2023-05-24T06:24:33;101544.78;;;15.63;100.00
9784;BME280;4931;44.874;-1.092;2023-05-24T06:26:59;101545.44;;;15.79;100.00
9784;BME280;4931;44.874;-1.092;2023-05-24T06:29:24;101544.97;;;15.96;100.00
9784;BME280;4931;44.874;-1.092;2023-05-24T06:31:50;101543.78;;;15.77;100.00
9784;BME280;4931;44.874;-1.092;2023-05-24T06:34:17;101535.63;;;16.10;100.00
9784;BME280;4931;44.874;-1.092;2023-05-24T06:36:45;101539.28;;;16.25;100.00
9784;BME280;4931;44.874;-1.092;2023-05-24T06:39:13;101534.19;;;16.32;100.00
9784;BME280;4931;44.874;-1.092;2023-05-24T06:41:38;101537.19;;;16.55;100.00
9784;BME280;4931;44.874;-1.092;2023-05-24T06:44:04;101535.00;;;16.52;100.00
9784;BME280;4931;44.874;-1.092;2023-05-24T06:46:29;101530.41;;;16.61;100.00
9784;BME280;4931;44.874;-1.092;2023-05-24T06:48:55;101527.72;;;16.56;100.00
9784;BME280;4931;44.874;-1.092;2023-05-24T06:51:21;101531.34;;;16.89;100.00
9784;BME280;4931;44.874;-1.092;2023-05-24T06:53:46;101535.09;;;16.99;100.00
9784;BME280;4931;44.874;-1.092;2023-05-24T06:56:15;101537.03;;;16.98;100.00
9784;BME280;4931;44.874;-1.092;2023-05-24T06:58:40;101542.09;;;17.10;100.00
9784;BME280;4931;44.874;-1.092;2023-05-24T07:01:06;101530.91;;;17.29;100.00
9784;BME280;4931;44.874;-1.092;2023-05-24T07:03:33;101532.16;;;17.37;100.00
9784;BME280;4931;44.874;-1.092;2023-05-24T07:05:59;101526.91;;;17.63;100.00
9784;BME280;4931;44.874;-1.092;2023-05-24T07:08:24;101522.81;;;17.74;100.00
9784;BME280;4931;44.874;-1.092;2023-05-24T07:10:50;101517.03;;;17.85;100.00
9784;BME280;4931;44.874;-1.092;2023-05-24T07:13:16;101511.56;;;18.07;100.00
9784;BME280;4931;44.874;-1.092;2023-05-24T07:15:41;101509.00;;;18.11;100.00
9784;BME280;4931;44.874;-1.092;2023-05-24T07:18:07;101514.56;;;18.34;100.00
9784;BME280;4931;44.874;-1.092;2023-05-24T07:20:33;101523.56;;;18.17;100.00
9784;BME280;4931;44.874;-1.092;2023-05-24T07:22:59;101529.50;;;18.24;100.00
9784;BME280;4931;44.874;-1.092;2023-05-24T07:25:26;101531.66;;;18.27;100.00
9784;BME280;4931;44.874;-1.092;2023-05-24T07:27:51;101528.81;;;18.41;100.00
9784;BME280;4931;44.874;-1.092;2023-05-24T07:30:17;101526.75;;;18.47;100.00
9784;BME280;4931;44.874;-1.092;2023-05-24T07:32:43;101529.41;;;18.52;100.00
9784;BME280;4931;44.874;-1.092;2023-05-24T07:35:10;101525.97;;;18.78;100.00
9784;BME280;4931;44.874;-1.092;2023-05-24T07:37:37;101535.84;;;18.84;100.00
9784;BME280;4931;44.874;-1.092;2023-05-24T07:40:03;101531.31;;;19.19;100.00
9784;BME280;4931;44.874;-1.092;2023-05-24T07:42:29;101521.84;;;19.20;100.00
9784;BME280;4931;44.874;-1.092;2023-05-24T07:44:55;101516.66;;;19.36;100.00
9784;BME280;4931;44.874;-1.092;2023-05-24T07:47:21;101523.94;;;19.15;100.00
9784;BME280;4931;44.874;-1.092;2023-05-24T07:49:46;101523.84;;;18.97;100.00
9784;BME280;4931;44.874;-1.092;2023-05-24T07:52:12;101527.84;;;19.14;100.00
9784;BME280;4931;44.874;-1.092;2023-05-24T07:54:37;101532.50;;;19.27;100.00
9784;BME280;4931;44.874;-1.092;2023-05-24T07:57:03;101530.09;;;19.92;100.00
9784;BME280;4931;44.874;-1.092;2023-05-24T07:59:28;101534.09;;;19.68;100.00
9784;BME280;4931;44.874;-1.092;2023-05-24T08:01:54;101540.03;;;19.35;100.00
9784;BME280;4931;44.874;-1.092;2023-05-24T08:04:25;101535.00;;;19.46;100.00
9784;BME280;4931;44.874;-1.092;2023-05-24T08:06:51;101540.13;;;19.53;100.00
9784;BME280;4931;44.874;-1.092;2023-05-24T08:09:16;101549.47;;;19.57;100.00
9784;BME280;4931;44.874;-1.092;2023-05-24T08:11:42;101546.41;;;19.67;100.00
9784;BME280;4931;44.874;-1.092;2023-05-24T08:14:07;101551.97;;;19.67;100.00
9784;BME280;4931;44.874;-1.092;2023-05-24T08:16:33;101556.63;;;19.98;100.00
9784;BME280;4931;44.874;-1.092;2023-05-24T08:18:58;101543.56;;;20.25;100.00
9784;BME280;4931;44.874;-1.092;2023-05-24T08:21:24;101540.78;;;20.34;100.00
9784;BME280;4931;44.874;-1.092;2023-05-24T08:23:50;101541.28;;;20.10;100.00
9784;BME280;4931;44.874;-1.092;2023-05-24T08:26:15;101541.44;;;20.31;100.00
9784;BME280;4931;44.874;-1.092;2023-05-24T08:28:43;101544.22;;;20.22;100.00
9784;BME280;4931;44.874;-1.092;2023-05-24T08:31:08;101546.50;;;20.55;100.00
9784;BME280;4931;44.874;-1.092;2023-05-24T08:33:34;101542.25;;;20.66;100.00
9784;BME280;4931;44.874;-1.092;2023-05-24T08:35:59;101554.91;;;20.72;100.00
9784;BME280;4931;44.874;-1.092;2023-05-24T08:38:25;101561.91;;;20.61;100.00
9784;BME280;4931;44.874;-1.092;2023-05-24T08:40:50;101564.88;;;20.73;100.00
9784;BME280;4931;44.874;-1.092;2023-05-24T08:43:16;101570.09;;;20.84;100.00
9784;BME280;4931;44.874;-1.092;2023-05-24T08:45:44;101565.03;;;20.95;100.00
9784;BME280;4931;44.874;-1.092;2023-05-24T08:48:10;101555.63;;;21.08;100.00
9784;BME280;4931;44.874;-1.092;2023-05-24T08:50:37;101553.97;;;21.16;100.00
9784;BME280;4931;44.874;-1.092;2023-05-24T08:53:05;101565.50;;;21.44;100.00
9784;BME280;4931;44.874;-1.092;2023-05-24T08:55:31;101561.25;;;20.64;100.00
9784;BME280;4931;44.874;-1.092;2023-05-24T08:57:58;101557.59;;;21.08;100.00
9784;BME280;4931;44.874;-1.092;2023-05-24T09:00:24;101555.97;;;21.06;100.00
9784;BME280;4931;44.874;-1.092;2023-05-24T09:02:51;101555.97;;;21.06;100.00
9784;BME280;4931;44.874;-1.092;2023-05-24T09:05:18;101549.00;;;21.30;100.00
9784;BME280;4931;44.874;-1.092;2023-05-24T09:07:47;101547.63;;;21.54;100.00
9784;BME280;4931;44.874;-1.092;2023-05-24T09:10:13;101552.13;;;21.67;100.00
9784;BME280;4931;44.874;-1.092;2023-05-24T09:12:43;101552.69;;;21.61;100.00
9784;BME280;4931;44.874;-1.092;2023-05-24T09:15:10;101554.31;;;21.53;100.00
9784;BME280;4931;44.874;-1.092;2023-05-24T09:17:36;101546.13;;;21.57;100.00
9784;BME280;4931;44.874;-1.092;2023-05-24T09:20:03;101550.22;;;22.10;100.00
9784;BME280;4931;44.874;-1.092;2023-05-24T09:22:31;101551.09;;;22.23;100.00
9784;BME280;4931;44.874;-1.092;2023-05-24T09:25:01;101550.84;;;22.16;100.00
9784;BME280;4931;44.874;-1.092;2023-05-24T09:27:27;101549.91;;;22.33;100.00
9784;BME280;4931;44.874;-1.092;2023-05-24T09:29:54;101553.03;;;22.31;100.00
9784;BME280;4931;44.874;-1.092;2023-05-24T09:32:21;101552.91;;;22.49;100.00
9784;BME280;4931;44.874;-1.092;2023-05-24T09:34:49;101550.94;;;22.83;100.00
9784;BME280;4931;44.874;-1.092;2023-05-24T09:37:17;101544.84;;;22.68;100.00
9784;BME280;4931;44.874;-1.092;2023-05-24T09:39:43;101556.34;;;23.00;100.00
9784;BME280;4931;44.874;-1.092;2023-05-24T09:42:18;101553.97;;;22.78;100.00
9784;BME280;4931;44.874;-1.092;2023-05-24T09:44:57;101546.31;;;22.99;100.00
9784;BME280;4931;44.874;-1.092;2023-05-24T09:47:27;101551.09;;;22.86;100.00
9784;BME280;4931;44.874;-1.092;2023-05-24T09:49:53;101552.53;;;22.38;100.00
9784;BME280;4931;44.874;-1.092;2023-05-24T09:52:20;101551.63;;;22.80;100.00
9784;BME280;4931;44.874;-1.092;2023-05-24T09:54:46;101553.25;;;22.81;100.00
9784;BME280;4931;44.874;-1.092;2023-05-24T09:57:15;101550.59;;;23.18;100.00
9784;BME280;4931;44.874;-1.092;2023-05-24T09:59:41;101551.59;;;23.13;100.00
9784;BME280;4931;44.874;-1.092;2023-05-24T10:02:10;101548.38;;;22.90;100.00
9784;BME280;4931;44.874;-1.092;2023-05-24T10:04:39;101547.28;;;23.03;100.00
9784;BME280;4931;44.874;-1.092;2023-05-24T10:07:07;101541.69;;;23.03;100.00
9784;BME280;4931;44.874;-1.092;2023-05-24T10:09:34;101542.91;;;23.27;100.00
9784;BME280;4931;44.874;-1.092;2023-05-24T10:12:01;101542.22;;;22.97;100.00
9784;BME280;4931;44.874;-1.092;2023-05-24T10:14:31;101541.25;;;23.14;100.00
9784;BME280;4931;44.874;-1.092;2023-05-24T10:16:57;101538.13;;;23.65;100.00
9784;BME280;4931;44.874;-1.092;2023-05-24T10:19:23;101549.22;;;23.49;100.00
9784;BME280;4931;44.874;-1.092;2023-05-24T10:21:51;101544.09;;;23.63;100.00
9784;BME280;4931;44.874;-1.092;2023-05-24T10:24:21;101549.19;;;23.24;100.00
9784;BME280;4931;44.874;-1.092;2023-05-24T10:26:49;101548.66;;;23.10;100.00
9784;BME280;4931;44.874;-1.092;2023-05-24T10:32:13;101545.03;;;23.55;100.00
9784;BME280;4931;44.874;-1.092;2023-05-24T10:34:41;101539.41;;;23.67;100.00
9784;BME280;4931;44.874;-1.092;2023-05-24T10:37:07;101545.00;;;23.43;100.00
9784;BME280;4931;44.874;-1.092;2023-05-24T10:39:34;101554.34;;;23.22;100.00
9784;BME280;4931;44.874;-1.092;2023-05-24T10:42:04;101551.81;;;22.41;100.00
9784;BME280;4931;44.874;-1.092;2023-05-24T10:44:30;101548.38;;;22.78;100.00
9784;BME280;4931;44.874;-1.092;2023-05-24T10:47:16;101540.34;;;23.34;100.00
9784;BME280;4931;44.874;-1.092;2023-05-24T10:49:53;101548.66;;;23.10;100.00
9784;BME280;4931;44.874;-1.092;2023-05-24T10:52:19;101551.00;;;23.08;100.00
9784;BME280;4931;44.874;-1.092;2023-05-24T10:55:04;101554.13;;;23.27;100.00
9784;BME280;4931;44.874;-1.092;2023-05-24T10:57:31;101549.25;;;23.03;100.00
9784;BME280;4931;44.874;-1.092;2023-05-24T11:00:03;101538.69;;;23.21;100.00
9784;BME280;4931;44.874;-1.092;2023-05-24T11:02:43;101541.97;;;22.77;100.00
9784;BME280;4931;44.874;-1.092;2023-05-24T11:05:08;101540.91;;;23.15;100.00
9784;BME280;4931;44.874;-1.092;2023-05-24T11:07:40;101539.44;;;23.55;100.00
9784;BME280;4931;44.874;-1.092;2023-05-24T11:10:14;101544.31;;;23.70;100.00
9784;BME280;4931;44.874;-1.092;2023-05-24T11:12:41;101539.56;;;23.59;100.00
9784;BME280;4931;44.874;-1.092;2023-05-24T11:15:10;101537.06;;;23.57;100.00
9784;BME280;4931;44.874;-1.092;2023-05-24T11:20:34;101548.41;;;23.73;100.00
9784;BME280;4931;44.874;-1.092;2023-05-24T11:23:04;101554.09;;;23.77;100.00
9784;BME280;4931;44.874;-1.092;2023-05-24T11:25:34;101548.03;;;24.12;100.00
9784;BME280;4931;44.874;-1.092;2023-05-24T11:28:02;101553.19;;;23.97;100.00
9784;BME280;4931;44.874;-1.092;2023-05-24T11:30:29;101542.88;;;24.14;100.00
9784;BME280;4931;44.874;-1.092;2023-05-24T11:32:57;101542.22;;;24.33;100.00
9784;BME280;4931;44.874;-1.092;2023-05-24T11:35:25;101546.19;;;24.32;100.00
9784;BME280;4931;44.874;-1.092;2023-05-24T11:37:58;101542.72;;;24.35;100.00
9784;BME280;4931;44.874;-1.092;2023-05-24T11:40:24;101549.22;;;23.98;100.00
9784;BME280;4931;44.874;-1.092;2023-05-24T11:42:51;101546.41;;;23.98;100.00
9784;BME280;4931;44.874;-1.092;2023-05-24T11:45:17;101547.78;;;24.04;100.00
9784;BME280;4931;44.874;-1.092;2023-05-24T11:47:43;101537.06;;;23.82;100.00
9784;BME280;4931;44.874;-1.092;2023-05-24T11:50:09;101539.66;;;23.99;100.00
9784;BME280;4931;44.874;-1.092;2023-05-24T11:52:41;101541.97;;;23.73;100.00
9784;BME280;4931;44.874;-1.092;2023-05-24T11:55:06;101543.59;;;23.24;100.00
9784;BME280;4931;44.874;-1.092;2023-05-24T11:57:41;101553.75;;;23.41;100.00
9784;BME280;4931;44.874;-1.092;2023-05-24T12:00:10;101553.63;;;23.37;100.00
9784;BME280;4931;44.874;-1.092;2023-05-24T12:02:41;101543.00;;;23.31;100.00
9784;BME280;4931;44.874;-1.092;2023-05-24T12:05:07;101539.41;;;23.43;100.00
9784;BME280;4931;44.874;-1.092;2023-05-24T12:07:38;101545.00;;;23.43;100.00
9784;BME280;4931;44.874;-1.092;2023-05-24T12:10:05;101538.59;;;23.42;100.00
9784;BME280;4931;44.874;-1.092;2023-05-24T12:12:33;101529.25;;;23.50;100.00
9784;BME280;4931;44.874;-1.092;2023-05-24T12:14:58;101527.16;;;23.35;100.00
9784;BME280;4931;44.874;-1.092;2023-05-24T12:17:24;101529.38;;;23.79;100.00
9784;BME280;4931;44.874;-1.092;2023-05-24T12:19:49;101520.00;;;23.87;100.00
9784;BME280;4931;44.874;-1.092;2023-05-24T12:22:17;101518.66;;;23.93;100.00
9784;BME280;4931;44.874;-1.092;2023-05-24T12:24:43;101522.59;;;23.92;100.00
9784;BME280;4931;44.874;-1.092;2023-05-24T12:27:10;101513.28;;;24.29;100.00
9784;BME280;4931;44.874;-1.092;2023-05-24T12:29:37;101522.78;;;24.12;100.00
9784;BME280;4931;44.874;-1.092;2023-05-24T12:32:04;101515.31;;;24.16;100.00
9784;BME280;4931;44.874;-1.092;2023-05-24T12:34:31;101511.34;;;24.17;100.00
9784;BME280;4931;44.874;-1.092;2023-05-24T12:36:56;101505.38;;;24.18;100.00
9784;BME280;4931;44.874;-1.092;2023-05-24T12:39:27;101500.13;;;24.17;100.00
9784;BME280;4931;44.874;-1.092;2023-05-24T12:41:58;101487.94;;;23.97;100.00
9784;BME280;4931;44.874;-1.092;2023-05-24T12:44:35;101497.31;;;24.17;100.00
9784;BME280;4931;44.874;-1.092;2023-05-24T12:47:03;101486.03;;;24.42;100.00
9784;BME280;4931;44.874;-1.092;2023-05-24T12:49:30;101486.78;;;24.26;100.00
9784;BME280;4931;44.874;-1.092;2023-05-24T12:51:56;101484.84;;;24.43;100.00
9784;BME280;4931;44.874;-1.092;2023-05-24T12:54:25;101483.63;;;23.99;100.00
9784;BME280;4931;44.874;-1.092;2023-05-24T12:56:51;101478.94;;;24.32;100.00
9784;BME280;4931;44.874;-1.092;2023-05-24T12:59:17;101486.38;;;24.12;100.00
9784;BME280;4931;44.874;-1.092;2023-05-24T13:01:43;101485.91;;;24.38;100.00
9784;BME280;4931;44.874;-1.092;2023-05-24T13:04:11;101484.63;;;24.35;100.00
9784;BME280;4931;44.874;-1.092;2023-05-24T13:06:36;101485.03;;;24.50;100.00
9784;BME280;4931;44.874;-1.092;2023-05-24T13:09:02;101474.41;;;24.27;100.00